createdAt,value
2023-05-19T00:02:05.977Z,13.04
2023-05-19T00:04:33.711Z,13.56
2023-05-19T00:07:01.370Z,13.44
2023-05-19T00:09:28.467Z,13.69
2023-05-19T00:11:56.780Z,13.66
2023-05-19T00:14:23.768Z,13.43
2023-05-19T00:16:50.738Z,13.78
2023-05-19T00:19:17.758Z,13.54
2023-05-19T00:21:44.476Z,13.66
2023-05-19T00:24:11.265Z,13.74
2023-05-19T00:26:37.997Z,13.61
2023-05-19T00:29:04.803Z,13.30
2023-05-19T00:31:31.868Z,13.65
2023-05-19T00:33:58.571Z,14.00
2023-05-19T00:36:26.072Z,13.82
2023-05-19T00:38:52.787Z,13.67
2023-05-19T00:41:19.617Z,13.89
2023-05-19T00:43:46.276Z,13.82
2023-05-19T00:46:13.032Z,13.88
2023-05-19T00:48:39.717Z,14.11
2023-05-19T00:51:06.721Z,14.44
2023-05-19T00:53:34.300Z,14.76
2023-05-19T00:56:02.193Z,14.94
2023-05-19T00:58:30.503Z,15.09
2023-05-19T01:01:04.198Z,15.08
2023-05-19T01:03:35.040Z,14.87
2023-05-19T01:06:05.106Z,15.35
2023-05-19T01:08:37.293Z,15.50
2023-05-19T01:11:05.546Z,15.43
2023-05-19T01:13:33.702Z,15.37
2023-05-19T01:16:06.988Z,15.49
2023-05-19T01:18:56.198Z,15.70
2023-05-19T01:21:44.352Z,15.27
2023-05-19T01:24:23.319Z,15.98
2023-05-19T01:27:15.133Z,16.04
2023-05-19T01:29:47.970Z,16.00
2023-05-19T01:32:19.618Z,15.99
2023-05-19T01:34:49.215Z,16.05
2023-05-19T01:37:17.492Z,16.02
2023-05-19T01:39:45.128Z,16.08
2023-05-19T01:42:14.280Z,15.81
2023-05-19T01:44:41.615Z,15.44
2023-05-19T01:47:09.646Z,15.81
2023-05-19T01:49:36.452Z,15.89
2023-05-19T01:52:03.120Z,15.86
2023-05-19T01:54:29.733Z,15.77
2023-05-19T01:57:09.687Z,15.50
2023-05-19T01:59:49.299Z,15.72
2023-05-19T02:02:57.440Z,15.79
2023-05-19T02:05:34.447Z,15.64
2023-05-19T02:08:05.732Z,15.82
2023-05-19T02:10:35.847Z,15.64
2023-05-19T02:13:06.466Z,15.80
2023-05-19T02:15:42.045Z,15.84
2023-05-19T02:18:12.635Z,15.80
2023-05-19T02:20:40.200Z,15.82
2023-05-19T02:23:07.214Z,15.82
2023-05-19T02:25:34.055Z,15.64
2023-05-19T02:28:00.861Z,16.02
2023-05-19T02:30:27.875Z,15.94
2023-05-19T02:32:54.565Z,15.66
2023-05-19T02:35:21.587Z,15.94
2023-05-19T02:37:48.323Z,15.88
2023-05-19T02:40:15.380Z,16.05
2023-05-19T02:42:41.967Z,16.16
2023-05-19T02:45:08.823Z,15.78
2023-05-19T02:47:36.925Z,15.74
2023-05-19T02:50:04.971Z,15.70
2023-05-19T02:52:31.791Z,15.18
2023-05-19T02:54:58.485Z,14.41
2023-05-19T02:57:26.758Z,14.67
2023-05-19T02:59:53.461Z,14.69
2023-05-19T03:02:20.098Z,14.51
2023-05-19T03:04:46.807Z,14.33
2023-05-19T03:07:14.295Z,14.30
2023-05-19T03:09:40.996Z,14.35
2023-05-19T03:12:08.068Z,14.43
2023-05-19T03:14:38.572Z,14.44
2023-05-19T03:17:08.247Z,14.01
2023-05-19T03:19:35.191Z,14.23
2023-05-19T03:22:01.863Z,14.22
2023-05-19T03:24:28.445Z,14.14
2023-05-19T03:26:55.115Z,14.05
2023-05-19T03:29:21.920Z,14.69
2023-05-19T03:31:48.563Z,14.60
2023-05-19T03:34:15.231Z,14.65
2023-05-19T03:36:41.924Z,14.39
2023-05-19T03:39:09.447Z,14.69
2023-05-19T03:41:36.052Z,14.33
2023-05-19T03:44:02.775Z,14.55
2023-05-19T03:46:29.465Z,14.90
2023-05-19T03:48:56.205Z,14.96
2023-05-19T03:51:22.806Z,14.34
2023-05-19T03:53:49.463Z,15.41
2023-05-19T03:56:18.215Z,15.69
2023-05-19T03:58:45.149Z,15.75
2023-05-19T04:01:11.928Z,15.86
2023-05-19T04:03:38.802Z,15.56
2023-05-19T04:06:05.960Z,15.95
2023-05-19T04:08:32.619Z,16.16
2023-05-19T04:10:59.315Z,16.21
2023-05-19T04:13:26.175Z,15.81
2023-05-19T04:15:53.030Z,16.19
2023-05-19T04:18:19.647Z,16.25
2023-05-19T04:20:46.418Z,16.16
2023-05-19T04:23:13.111Z,16.22
2023-05-19T04:25:40.929Z,16.36
2023-05-19T04:28:07.800Z,16.50
2023-05-19T04:30:34.790Z,16.58
2023-05-19T04:33:03.558Z,16.79
2023-05-19T04:35:30.253Z,16.63
2023-05-19T04:37:56.947Z,16.37
2023-05-19T04:40:24.911Z,16.91
2023-05-19T04:42:52.444Z,14.91
2023-05-19T04:45:19.221Z,16.76
2023-05-19T04:47:48.257Z,16.69
2023-05-19T04:50:16.418Z,16.72
2023-05-19T04:52:45.565Z,16.38
2023-05-19T04:55:13.234Z,16.60
2023-05-19T04:57:40.235Z,16.72
2023-05-19T05:00:09.172Z,16.72
2023-05-19T05:02:36.261Z,16.76
2023-05-19T05:05:03.017Z,16.78
2023-05-19T05:07:31.655Z,16.76
2023-05-19T05:09:59.779Z,16.81
2023-05-19T05:12:26.739Z,17.09
2023-05-19T05:14:53.664Z,16.94
2023-05-19T05:17:20.639Z,17.45
2023-05-19T05:19:48.526Z,17.81
2023-05-19T05:22:15.633Z,17.86
2023-05-19T05:24:42.489Z,18.10
2023-05-19T05:27:10.375Z,17.98
2023-05-19T05:29:37.338Z,18.17
2023-05-19T05:32:04.127Z,18.08
2023-05-19T05:34:31.082Z,18.27
2023-05-19T05:36:57.676Z,18.12
2023-05-19T05:39:24.336Z,17.91
2023-05-19T05:41:51.010Z,18.35
2023-05-19T05:44:17.684Z,18.35
2023-05-19T05:46:44.794Z,18.61
2023-05-19T05:49:13.467Z,18.62
2023-05-19T05:51:42.936Z,18.70
2023-05-19T05:54:12.568Z,18.80
2023-05-19T05:56:41.251Z,16.46
2023-05-19T05:59:07.934Z,18.59
2023-05-19T06:01:35.939Z,18.31
2023-05-19T06:04:02.751Z,18.86
2023-05-19T06:06:29.419Z,18.95
2023-05-19T06:08:56.167Z,19.22
2023-05-19T06:11:23.149Z,19.17
2023-05-19T06:13:49.751Z,18.34
2023-05-19T06:16:16.577Z,18.83
2023-05-19T06:18:43.327Z,19.51
2023-05-19T06:21:13.561Z,19.94
2023-05-19T06:23:41.083Z,19.65
2023-05-19T06:26:07.752Z,19.59
2023-05-19T06:28:34.485Z,19.86
2023-05-19T06:31:01.328Z,20.32
2023-05-19T06:33:29.360Z,20.35
2023-05-19T06:35:56.094Z,20.23
2023-05-19T06:38:22.746Z,20.20
2023-05-19T06:40:49.519Z,20.35
2023-05-19T06:43:16.189Z,20.38
2023-05-19T06:45:42.809Z,20.23
2023-05-19T06:48:09.572Z,19.71
2023-05-19T06:50:36.271Z,20.18
2023-05-19T06:53:02.921Z,20.53
2023-05-19T06:55:29.587Z,20.76
2023-05-19T06:57:56.546Z,20.17
2023-05-19T07:00:24.095Z,20.00
2023-05-19T07:02:51.134Z,20.15
2023-05-19T07:05:18.134Z,19.81
2023-05-19T07:07:44.878Z,20.29
2023-05-19T07:10:11.687Z,20.78
2023-05-19T07:12:38.285Z,20.37
2023-05-19T07:15:05.349Z,20.10
2023-05-19T07:17:32.007Z,19.82
2023-05-19T07:19:58.978Z,19.89
2023-05-19T07:22:25.675Z,19.57
2023-05-19T07:24:52.723Z,19.43
2023-05-19T07:27:19.373Z,19.55
2023-05-19T07:29:45.994Z,19.62
2023-05-19T07:32:12.804Z,19.71
2023-05-19T07:34:40.681Z,19.89
2023-05-19T07:37:07.482Z,20.01
2023-05-19T07:39:35.299Z,19.80
2023-05-19T07:42:02.172Z,19.75
2023-05-19T07:44:31.302Z,20.31
2023-05-19T07:46:58.015Z,20.65
2023-05-19T07:49:24.684Z,20.51
2023-05-19T07:51:51.323Z,20.55
2023-05-19T07:54:18.442Z,20.49
2023-05-19T07:56:45.070Z,20.54
2023-05-19T07:59:11.900Z,20.71
2023-05-19T08:01:38.618Z,20.43
2023-05-19T08:04:05.620Z,20.45
2023-05-19T08:06:32.322Z,20.74
2023-05-19T08:08:58.983Z,21.13
2023-05-19T08:11:25.922Z,21.25
2023-05-19T08:13:52.620Z,20.90
2023-05-19T08:16:19.376Z,21.39
2023-05-19T08:18:46.223Z,21.43
2023-05-19T08:21:12.971Z,21.28
2023-05-19T08:23:39.618Z,21.05
2023-05-19T08:26:06.308Z,21.27
2023-05-19T08:28:32.982Z,20.67
2023-05-19T08:30:59.785Z,21.19
2023-05-19T08:33:26.424Z,21.71
2023-05-19T08:35:53.180Z,21.84
2023-05-19T08:38:19.803Z,21.17
2023-05-19T08:40:48.409Z,21.36
2023-05-19T08:43:15.203Z,21.42
2023-05-19T08:45:48.361Z,21.31
2023-05-19T08:48:17.315Z,20.87
2023-05-19T08:50:51.870Z,20.40
2023-05-19T08:53:33.766Z,20.12
2023-05-19T08:56:20.259Z,20.56
2023-05-19T08:58:49.973Z,20.53
2023-05-19T09:01:18.201Z,20.39
2023-05-19T09:03:46.181Z,20.85
2023-05-19T09:06:13.378Z,20.84
2023-05-19T09:08:41.694Z,20.99
2023-05-19T09:11:10.136Z,21.47
2023-05-19T09:13:37.003Z,21.00
2023-05-19T09:16:04.011Z,21.65
2023-05-19T09:18:31.213Z,21.76
2023-05-19T09:21:03.009Z,21.86
2023-05-19T09:23:33.579Z,21.94
2023-05-19T09:26:07.590Z,22.21
2023-05-19T09:28:36.493Z,22.79
2023-05-19T09:31:11.224Z,22.80
2023-05-19T09:33:45.593Z,22.53
2023-05-19T09:36:13.749Z,22.04
2023-05-19T09:38:40.694Z,22.16
2023-05-19T09:41:09.297Z,22.56
2023-05-19T09:43:36.607Z,21.68
2023-05-19T09:46:07.958Z,22.64
2023-05-19T09:48:36.455Z,23.08
2023-05-19T09:51:05.389Z,23.10
2023-05-19T09:53:32.663Z,23.55
2023-05-19T09:56:02.093Z,23.32
2023-05-19T09:58:35.431Z,23.19
2023-05-19T10:01:03.814Z,22.74
2023-05-19T10:03:33.095Z,23.19
2023-05-19T10:06:01.590Z,23.07
2023-05-19T10:08:30.420Z,22.91
2023-05-19T10:10:58.398Z,22.83
2023-05-19T10:13:25.970Z,23.46
2023-05-19T10:15:58.769Z,24.09
2023-05-19T10:18:27.845Z,23.51
2023-05-19T10:20:54.962Z,24.01
2023-05-19T10:23:22.554Z,24.15
2023-05-19T10:25:52.502Z,24.26
2023-05-19T10:28:23.660Z,23.69
2023-05-19T10:30:56.488Z,23.21
2023-05-19T10:33:44.996Z,22.86
2023-05-19T10:36:42.678Z,23.43
2023-05-19T10:39:17.206Z,23.28
2023-05-19T10:41:57.250Z,23.95
2023-05-19T10:44:39.171Z,24.59
2023-05-19T10:47:12.042Z,24.82
2023-05-19T10:49:40.063Z,25.02
2023-05-19T10:52:27.062Z,24.89
2023-05-19T10:54:55.012Z,24.78
2023-05-19T10:57:28.493Z,24.74
2023-05-19T10:59:56.006Z,24.70
2023-05-19T11:02:43.072Z,23.91
2023-05-19T11:05:14.447Z,23.66
2023-05-19T11:07:54.604Z,23.95
2023-05-19T11:10:24.789Z,23.45
2023-05-19T11:12:52.460Z,23.67
2023-05-19T11:15:26.349Z,23.84
2023-05-19T11:17:53.993Z,24.49
2023-05-19T11:20:26.044Z,24.33
2023-05-19T11:23:15.862Z,23.70
2023-05-19T11:25:51.499Z,23.94
2023-05-19T11:28:20.259Z,25.03
2023-05-19T11:30:52.481Z,25.51
2023-05-19T11:33:27.179Z,25.64
2023-05-19T11:35:58.168Z,26.09
2023-05-19T11:38:25.437Z,25.43
2023-05-19T11:40:55.576Z,25.02
2023-05-19T11:43:26.289Z,25.79
2023-05-19T11:45:55.391Z,26.06
2023-05-19T11:48:22.598Z,25.61
2023-05-19T11:50:50.128Z,25.22
2023-05-19T11:53:19.867Z,24.93
2023-05-19T11:55:47.963Z,23.64
2023-05-19T11:58:15.015Z,23.84
2023-05-19T12:00:46.000Z,23.42
2023-05-19T12:03:13.443Z,23.34
2023-05-19T12:05:46.061Z,23.45
2023-05-19T12:08:13.757Z,23.77
2023-05-19T12:10:41.094Z,23.37
2023-05-19T12:13:09.593Z,23.59
2023-05-19T12:15:36.934Z,23.41
2023-05-19T12:18:03.956Z,24.09
2023-05-19T12:20:36.180Z,24.69
2023-05-19T12:23:04.182Z,25.15
2023-05-19T12:25:31.920Z,25.12
2023-05-19T12:28:00.726Z,25.35
2023-05-19T12:30:29.874Z,25.25
2023-05-19T12:32:57.880Z,25.92
2023-05-19T12:35:33.132Z,25.92
2023-05-19T12:38:04.870Z,25.77
2023-05-19T12:40:33.289Z,24.47
2023-05-19T12:43:00.164Z,25.16
2023-05-19T12:45:30.834Z,25.77
2023-05-19T12:47:57.828Z,26.94
2023-05-19T12:50:31.403Z,27.58
2023-05-19T12:52:59.893Z,27.65
2023-05-19T12:55:26.752Z,27.09
2023-05-19T12:57:59.667Z,25.70
2023-05-19T13:00:32.888Z,24.78
2023-05-19T13:03:07.435Z,24.38
2023-05-19T13:05:45.833Z,26.30
2023-05-19T13:08:15.359Z,27.37
2023-05-19T13:10:44.040Z,27.34
2023-05-19T13:13:10.909Z,26.83
2023-05-19T13:15:40.444Z,25.03
2023-05-19T13:18:09.142Z,24.44
2023-05-19T13:20:40.734Z,24.84
2023-05-19T13:23:07.715Z,25.22
2023-05-19T13:25:34.640Z,24.73
2023-05-19T13:28:05.489Z,24.57
2023-05-19T13:30:38.584Z,23.83
2023-05-19T13:33:05.960Z,24.93
2023-05-19T13:35:39.076Z,24.75
2023-05-19T13:38:07.042Z,24.69
2023-05-19T13:40:35.097Z,25.12
2023-05-19T13:43:02.892Z,24.67
2023-05-19T13:45:29.976Z,25.59
2023-05-19T13:47:57.073Z,25.50
2023-05-19T13:50:23.889Z,24.54
2023-05-19T13:52:50.554Z,23.90
2023-05-19T13:55:17.407Z,23.06
2023-05-19T13:57:44.910Z,22.07
2023-05-19T14:00:11.874Z,21.56
2023-05-19T14:02:39.022Z,21.23
2023-05-19T14:05:07.074Z,20.61
2023-05-19T14:07:35.090Z,20.43
2023-05-19T14:10:06.769Z,20.10
2023-05-19T14:12:45.083Z,19.42
2023-05-19T14:15:19.535Z,19.45
2023-05-19T14:17:46.329Z,19.29
2023-05-19T14:20:13.165Z,18.53
2023-05-19T14:22:39.805Z,18.89
2023-05-19T14:25:06.972Z,18.54
2023-05-19T14:27:33.602Z,18.52
2023-05-19T14:30:00.323Z,18.40
2023-05-19T14:32:30.032Z,18.17
2023-05-19T14:34:57.116Z,18.28
2023-05-19T14:37:24.208Z,18.15
2023-05-19T14:39:50.833Z,17.77
2023-05-19T14:42:17.447Z,17.37
2023-05-19T14:44:44.152Z,17.25
2023-05-19T14:47:12.463Z,17.23
2023-05-19T14:49:39.247Z,17.22
2023-05-19T14:52:06.249Z,17.19
2023-05-19T14:54:32.907Z,17.33
2023-05-19T14:56:59.647Z,17.11
2023-05-19T14:59:26.283Z,17.49
2023-05-19T15:01:52.919Z,17.29
2023-05-19T15:04:19.733Z,15.41
2023-05-19T15:06:52.240Z,17.72
2023-05-19T15:09:25.107Z,17.64
2023-05-19T15:11:51.707Z,17.59
2023-05-19T15:14:18.288Z,17.57
2023-05-19T15:16:44.928Z,15.71
2023-05-19T15:19:11.570Z,16.14
2023-05-19T15:21:38.250Z,17.56
2023-05-19T15:24:05.136Z,17.55
2023-05-19T15:26:31.774Z,17.27
2023-05-19T15:28:58.386Z,17.03
2023-05-19T15:31:25.127Z,16.60
2023-05-19T15:33:51.758Z,16.87
2023-05-19T15:36:18.740Z,16.72
2023-05-19T15:38:45.475Z,16.73
2023-05-19T15:41:12.136Z,16.29
2023-05-19T15:43:39.190Z,16.77
2023-05-19T15:46:06.020Z,16.66
2023-05-19T15:48:33.440Z,16.75
2023-05-19T15:51:00.279Z,16.73
2023-05-19T15:53:27.022Z,16.50
2023-05-19T15:55:53.712Z,16.69
2023-05-19T15:58:20.462Z,16.48
2023-05-19T16:00:47.177Z,16.69
2023-05-19T16:03:13.898Z,16.59
2023-05-19T16:05:40.751Z,16.16
2023-05-19T16:08:08.657Z,16.77
2023-05-19T16:10:35.777Z,16.84
2023-05-19T16:13:02.555Z,16.76
2023-05-19T16:15:29.197Z,16.39
2023-05-19T16:17:55.954Z,16.98
2023-05-19T16:20:26.794Z,17.07
2023-05-19T16:22:54.244Z,17.09
2023-05-19T16:25:20.949Z,17.12
2023-05-19T16:27:47.763Z,16.43
2023-05-19T16:30:14.725Z,17.32
2023-05-19T16:32:41.399Z,17.50
2023-05-19T16:35:08.890Z,16.94
2023-05-19T16:37:36.028Z,17.53
2023-05-19T16:40:02.866Z,17.73
2023-05-19T16:42:29.484Z,17.89
2023-05-19T16:44:56.139Z,17.94
2023-05-19T16:47:22.740Z,17.74
2023-05-19T16:49:49.406Z,17.65
2023-05-19T16:52:16.010Z,17.90
2023-05-19T16:54:42.688Z,18.02
2023-05-19T16:57:09.958Z,17.94
2023-05-19T16:59:36.548Z,17.70
2023-05-19T17:02:03.495Z,17.90
2023-05-19T17:04:30.947Z,17.90
2023-05-19T17:06:57.803Z,17.49
2023-05-19T17:09:26.394Z,17.78
2023-05-19T17:11:53.598Z,17.88
2023-05-19T17:14:23.672Z,17.72
2023-05-19T17:16:52.436Z,17.10
2023-05-19T17:19:19.173Z,17.50
2023-05-19T17:21:46.420Z,16.83
2023-05-19T17:24:13.170Z,16.93
2023-05-19T17:26:39.842Z,17.15
2023-05-19T17:29:06.502Z,17.01
2023-05-19T17:31:36.479Z,16.06
2023-05-19T17:34:06.508Z,16.20
2023-05-19T17:36:33.117Z,16.43
2023-05-19T17:38:59.726Z,16.50
2023-05-19T17:41:26.426Z,16.60
2023-05-19T17:43:53.042Z,16.11
2023-05-19T17:46:19.757Z,16.24
2023-05-19T17:48:46.429Z,16.61
2023-05-19T17:51:13.073Z,16.12
2023-05-19T17:53:39.933Z,16.00
2023-05-19T17:56:09.614Z,16.30
2023-05-19T17:58:36.490Z,16.42
2023-05-19T18:01:04.190Z,16.41
2023-05-19T18:03:31.421Z,16.58
2023-05-19T18:05:58.804Z,16.57
2023-05-19T18:08:26.029Z,16.43
2023-05-19T18:10:55.308Z,15.78
2023-05-19T18:13:23.680Z,16.56
2023-05-19T18:15:50.602Z,16.58
2023-05-19T18:18:17.284Z,16.41
2023-05-19T18:20:45.746Z,16.17
2023-05-19T18:23:12.412Z,16.15
2023-05-19T18:25:39.343Z,16.11
2023-05-19T18:28:07.655Z,16.03
2023-05-19T18:30:34.826Z,15.95
2023-05-19T18:33:03.916Z,15.55
2023-05-19T18:35:30.830Z,15.77
2023-05-19T18:37:57.463Z,15.80
2023-05-19T18:40:24.561Z,15.75
2023-05-19T18:42:51.167Z,15.60
2023-05-19T18:45:17.965Z,15.37
2023-05-19T18:47:44.692Z,15.43
2023-05-19T18:50:11.327Z,15.27
2023-05-19T18:52:37.955Z,15.29
2023-05-19T18:55:05.442Z,15.29
2023-05-19T18:57:32.234Z,15.26
2023-05-19T18:59:58.862Z,15.35
2023-05-19T19:02:26.221Z,15.37
2023-05-19T19:04:52.930Z,15.49
2023-05-19T19:07:19.595Z,15.49
2023-05-19T19:09:46.253Z,15.29
2023-05-19T19:12:12.909Z,15.38
2023-05-19T19:14:39.617Z,14.97
2023-05-19T19:17:06.389Z,15.26
2023-05-19T19:19:33.276Z,15.21
2023-05-19T19:21:59.989Z,14.95
2023-05-19T19:24:28.496Z,14.92
2023-05-19T19:26:55.236Z,14.66
2023-05-19T19:29:21.974Z,14.66
2023-05-19T19:31:48.776Z,14.75
2023-05-19T19:34:15.499Z,14.40
2023-05-19T19:36:42.117Z,14.39
2023-05-19T19:39:12.115Z,14.46
2023-05-19T19:41:38.813Z,14.39
2023-05-19T19:44:08.328Z,14.31
2023-05-19T19:46:35.583Z,13.61
2023-05-19T19:49:02.463Z,14.25
2023-05-19T19:51:29.317Z,13.89
2023-05-19T19:53:56.004Z,14.37
2023-05-19T19:56:24.682Z,14.48
2023-05-19T19:58:51.727Z,14.39
2023-05-19T20:01:20.501Z,14.50
2023-05-19T20:03:47.817Z,14.36
2023-05-19T20:06:14.639Z,14.33
2023-05-19T20:08:41.544Z,14.17
2023-05-19T20:11:09.086Z,13.96
2023-05-19T20:13:35.744Z,14.14
2023-05-19T20:16:02.455Z,14.08
2023-05-19T20:18:29.960Z,14.09
2023-05-19T20:20:56.952Z,13.77
2023-05-19T20:23:23.587Z,13.69
2023-05-19T20:26:10.226Z,13.79
2023-05-19T20:28:37.513Z,13.77
2023-05-19T20:31:05.189Z,13.34
2023-05-19T20:33:32.065Z,13.75
2023-05-19T20:35:58.772Z,12.98
2023-05-19T20:38:25.526Z,13.66
2023-05-19T20:40:52.694Z,13.17
2023-05-19T20:43:19.404Z,13.45
2023-05-19T20:45:46.565Z,13.44
2023-05-19T20:48:13.373Z,13.53
2023-05-19T20:50:40.203Z,13.53
2023-05-19T20:53:07.475Z,13.59
2023-05-19T20:55:36.258Z,13.38
2023-05-19T20:58:03.110Z,13.75
2023-05-19T21:00:30.394Z,13.72
2023-05-19T21:02:57.496Z,13.60
2023-05-19T21:05:24.496Z,13.62
2023-05-19T21:07:51.124Z,13.56
2023-05-19T21:10:18.058Z,13.48
2023-05-19T21:12:44.801Z,13.00
2023-05-19T21:15:11.761Z,13.34
2023-05-19T21:17:38.463Z,13.28
2023-05-19T21:20:05.797Z,13.22
2023-05-19T21:22:32.503Z,13.26
2023-05-19T21:24:59.165Z,13.28
2023-05-19T21:27:25.957Z,13.20
2023-05-19T21:29:54.211Z,13.21
2023-05-19T21:32:22.460Z,12.86
2023-05-19T21:34:49.066Z,13.14
2023-05-19T21:37:17.358Z,12.91
2023-05-19T21:39:44.573Z,12.97
2023-05-19T21:42:11.230Z,12.85
2023-05-19T21:44:37.941Z,12.81
2023-05-19T21:47:04.638Z,12.85
2023-05-19T21:49:31.436Z,12.79
2023-05-19T21:51:58.408Z,12.70
2023-05-19T21:54:25.065Z,12.83
2023-05-19T21:56:51.800Z,12.80
2023-05-19T21:59:18.628Z,13.06
2023-05-19T22:01:45.398Z,13.12
2023-05-19T22:04:13.546Z,13.06
2023-05-19T22:06:40.152Z,13.20
2023-05-19T22:09:06.856Z,12.88
2023-05-19T22:11:33.718Z,13.23
2023-05-19T22:14:00.418Z,13.12
2023-05-19T22:16:27.172Z,13.04
2023-05-19T22:18:53.929Z,12.85
2023-05-19T22:21:20.697Z,13.11
2023-05-19T22:23:47.394Z,12.68
2023-05-19T22:26:14.117Z,12.95
2023-05-19T22:28:40.814Z,10.62
2023-05-19T22:31:07.412Z,12.79
2023-05-19T22:33:34.132Z,12.74
2023-05-19T22:36:00.809Z,12.80
2023-05-19T22:38:27.440Z,12.84
2023-05-19T22:40:54.159Z,12.92
2023-05-19T22:43:20.823Z,12.97
2023-05-19T22:45:47.476Z,12.26
2023-05-19T22:48:14.267Z,12.98
2023-05-19T22:50:41.047Z,12.99
2023-05-19T22:53:07.656Z,13.04
2023-05-19T22:55:34.722Z,12.88
2023-05-19T22:58:01.650Z,12.47
2023-05-19T23:00:28.272Z,13.01
2023-05-19T23:02:55.001Z,12.68
2023-05-19T23:05:21.665Z,13.00
2023-05-19T23:07:48.293Z,12.97
2023-05-19T23:10:14.973Z,12.86
2023-05-19T23:12:41.642Z,12.71
2023-05-19T23:15:09.629Z,13.03
2023-05-19T23:17:36.343Z,13.07
2023-05-19T23:20:03.781Z,12.97
2023-05-19T23:22:30.690Z,12.84
2023-05-19T23:24:57.290Z,12.79
2023-05-19T23:27:23.998Z,12.51
2023-05-19T23:29:51.142Z,12.68
2023-05-19T23:32:17.793Z,12.84
2023-05-19T23:34:44.422Z,12.71
2023-05-19T23:37:11.743Z,12.20
2023-05-19T23:39:38.467Z,11.96
2023-05-19T23:42:05.798Z,12.50
2023-05-19T23:44:32.626Z,12.60
2023-05-19T23:46:59.433Z,12.56
2023-05-19T23:49:26.265Z,12.62
2023-05-19T23:51:52.943Z,12.58
2023-05-19T23:54:19.567Z,12.61
2023-05-19T23:56:46.181Z,12.52
2023-05-19T23:59:12.909Z,12.27
